createdAt,value
2023-04-11T00:01:01.908Z,14.11
2023-04-11T00:03:28.965Z,14.06
2023-04-11T00:05:56.008Z,14.16
2023-04-11T00:08:22.551Z,14.04
2023-04-11T00:10:49.042Z,14.12
2023-04-11T00:13:15.503Z,14.14
2023-04-11T00:15:41.938Z,14.18
2023-04-11T00:18:09.148Z,14.26
2023-04-11T00:20:35.681Z,14.35
2023-04-11T00:23:02.157Z,14.51
2023-04-11T00:25:30.198Z,14.74
2023-04-11T00:27:56.927Z,14.82
2023-04-11T00:30:23.529Z,14.93
2023-04-11T00:32:50.365Z,15.02
2023-04-11T00:35:16.942Z,15.03
2023-04-11T00:37:44.461Z,15.02
2023-04-11T00:40:14.156Z,15.05
2023-04-11T00:42:40.940Z,15.03
2023-04-11T00:45:07.991Z,15.05
2023-04-11T00:47:35.030Z,15.13
2023-04-11T00:50:01.941Z,15.13
2023-04-11T00:52:28.803Z,15.04
2023-04-11T00:54:55.704Z,15.01
2023-04-11T00:57:22.815Z,15.02
2023-04-11T00:59:51.094Z,15.01
2023-04-11T01:02:18.793Z,14.94
2023-04-11T01:04:45.727Z,14.91
2023-04-11T01:07:13.242Z,14.96
2023-04-11T01:09:39.996Z,14.95
2023-04-11T01:12:06.883Z,15.02
2023-04-11T01:14:33.409Z,15.00
2023-04-11T01:17:02.163Z,14.93
2023-04-11T01:19:29.645Z,14.91
2023-04-11T01:21:57.901Z,14.87
2023-04-11T01:24:24.750Z,14.90
2023-04-11T01:26:52.181Z,14.91
2023-04-11T01:29:18.951Z,14.92
2023-04-11T01:31:46.241Z,14.89
2023-04-11T01:34:15.783Z,14.82
2023-04-11T01:36:42.722Z,14.82
2023-04-11T01:39:09.896Z,14.87
2023-04-11T01:41:37.357Z,14.82
2023-04-11T01:44:04.924Z,14.77
2023-04-11T01:46:32.131Z,14.82
2023-04-11T01:49:01.153Z,14.82
2023-04-11T01:51:27.764Z,14.71
2023-04-11T01:53:55.312Z,14.69
2023-04-11T01:56:22.236Z,14.71
2023-04-11T01:58:48.765Z,14.63
2023-04-11T02:01:19.990Z,14.57
2023-04-11T02:03:46.768Z,14.56
2023-04-11T02:06:14.828Z,14.51
2023-04-11T02:08:41.365Z,14.39
2023-04-11T02:11:08.333Z,14.28
2023-04-11T02:13:35.979Z,14.06
2023-04-11T02:16:11.377Z,13.91
2023-04-11T02:18:38.254Z,13.75
2023-04-11T02:21:05.896Z,13.61
2023-04-11T02:23:32.536Z,13.53
2023-04-11T02:25:58.990Z,13.41
2023-04-11T02:28:25.705Z,13.27
2023-04-11T02:30:52.335Z,13.33
2023-04-11T02:33:19.430Z,13.31
2023-04-11T02:35:46.868Z,13.24
2023-04-11T02:38:13.668Z,13.20
2023-04-11T02:40:40.376Z,13.26
2023-04-11T02:43:06.830Z,13.20
2023-04-11T02:45:33.416Z,13.29
2023-04-11T02:47:59.949Z,13.14
2023-04-11T02:50:27.143Z,12.56
2023-04-11T02:52:53.971Z,12.13
2023-04-11T02:55:23.137Z,11.88
2023-04-11T02:57:49.977Z,11.75
2023-04-11T03:00:18.442Z,11.70
2023-04-11T03:02:44.995Z,11.64
2023-04-11T03:05:11.555Z,11.60
2023-04-11T03:07:38.544Z,11.64
2023-04-11T03:10:05.572Z,11.60
2023-04-11T03:12:32.071Z,11.69
2023-04-11T03:14:58.575Z,11.60
2023-04-11T03:17:25.069Z,11.64
2023-04-11T03:19:51.585Z,11.73
2023-04-11T03:22:18.070Z,11.76
2023-04-11T03:24:44.595Z,11.75
2023-04-11T03:27:11.082Z,11.80
2023-04-11T03:29:37.589Z,11.76
2023-04-11T03:32:04.221Z,11.70
2023-04-11T03:34:30.769Z,11.72
2023-04-11T03:36:57.469Z,11.61
2023-04-11T03:39:24.431Z,11.73
2023-04-11T03:41:51.158Z,11.75
2023-04-11T03:44:17.662Z,11.75
2023-04-11T03:46:44.232Z,11.83
2023-04-11T03:49:10.791Z,11.66
2023-04-11T03:51:37.506Z,11.73
2023-04-11T03:54:04.030Z,11.75
2023-04-11T03:56:30.556Z,11.74
2023-04-11T03:58:57.325Z,11.85
2023-04-11T04:01:23.954Z,11.87
2023-04-11T04:03:50.534Z,11.73
2023-04-11T04:06:17.362Z,11.71
2023-04-11T04:08:44.004Z,11.75
2023-04-11T04:11:10.473Z,11.79
2023-04-11T04:13:36.914Z,11.87
2023-04-11T04:16:04.144Z,11.93
2023-04-11T04:18:30.752Z,11.86
2023-04-11T04:20:57.234Z,11.86
2023-04-11T04:23:23.879Z,11.85
2023-04-11T04:25:51.178Z,11.69
2023-04-11T04:28:20.502Z,11.63
2023-04-11T04:30:50.230Z,11.70
2023-04-11T04:33:18.734Z,11.61
2023-04-11T04:35:45.296Z,11.63
2023-04-11T04:38:17.858Z,11.69
2023-04-11T04:40:44.577Z,11.75
2023-04-11T04:43:18.453Z,11.76
2023-04-11T04:45:45.692Z,11.74
2023-04-11T04:48:15.331Z,11.75
2023-04-11T04:50:41.828Z,11.68
2023-04-11T04:53:08.310Z,11.60
2023-04-11T04:55:35.612Z,11.69
2023-04-11T04:58:02.149Z,11.63
2023-04-11T05:00:28.711Z,11.63
2023-04-11T05:02:55.380Z,11.65
2023-04-11T05:05:22.066Z,11.61
2023-04-11T05:07:48.570Z,11.50
2023-04-11T05:10:15.025Z,11.60
2023-04-11T05:12:41.618Z,11.58
2023-04-11T05:15:11.677Z,11.59
2023-04-11T05:17:38.649Z,11.59
2023-04-11T05:20:07.429Z,11.63
2023-04-11T05:22:33.924Z,11.66
2023-04-11T05:25:01.049Z,11.60
2023-04-11T05:27:27.523Z,11.59
2023-04-11T05:29:54.263Z,11.62
2023-04-11T05:32:20.820Z,11.62
2023-04-11T05:34:53.041Z,11.59
2023-04-11T05:37:20.015Z,11.51
2023-04-11T05:39:47.119Z,11.45
2023-04-11T05:42:17.436Z,11.45
2023-04-11T05:44:44.639Z,11.51
2023-04-11T05:47:11.891Z,11.48
2023-04-11T05:49:38.561Z,11.32
2023-04-11T05:52:05.104Z,11.27
2023-04-11T05:54:33.418Z,11.20
2023-04-11T05:57:00.198Z,11.19
2023-04-11T05:59:28.951Z,10.99
2023-04-11T06:01:55.779Z,11.02
2023-04-11T06:04:22.409Z,11.06
2023-04-11T06:06:49.133Z,11.08
2023-04-11T06:09:15.727Z,10.99
2023-04-11T06:11:42.478Z,11.01
2023-04-11T06:14:08.990Z,10.93
2023-04-11T06:16:36.816Z,10.82
2023-04-11T06:19:05.132Z,10.77
2023-04-11T06:21:34.233Z,10.68
2023-04-11T06:24:08.111Z,10.69
2023-04-11T06:26:34.604Z,10.71
2023-04-11T06:29:04.828Z,10.74
2023-04-11T06:31:31.637Z,10.47
2023-04-11T06:33:58.505Z,10.55
2023-04-11T06:36:26.040Z,10.54
2023-04-11T06:38:52.826Z,10.50
2023-04-11T06:41:19.352Z,10.45
2023-04-11T06:43:45.883Z,10.50
2023-04-11T06:46:12.616Z,10.61
2023-04-11T06:48:39.145Z,10.58
2023-04-11T06:51:05.985Z,10.59
2023-04-11T06:53:32.511Z,10.49
2023-04-11T06:56:00.711Z,10.30
2023-04-11T06:58:29.282Z,10.38
2023-04-11T07:00:58.887Z,10.29
2023-04-11T07:03:25.832Z,10.29
2023-04-11T07:05:52.630Z,10.27
2023-04-11T07:08:19.079Z,10.33
2023-04-11T07:10:45.535Z,10.32
2023-04-11T07:13:12.054Z,10.30
2023-04-11T07:15:38.595Z,10.24
2023-04-11T07:18:05.293Z,10.27
2023-04-11T07:20:35.041Z,10.27
2023-04-11T07:23:01.568Z,10.30
2023-04-11T07:25:30.623Z,10.22
2023-04-11T07:27:57.771Z,10.19
2023-04-11T07:30:24.341Z,10.38
2023-04-11T07:32:51.247Z,10.41
2023-04-11T07:35:18.039Z,10.50
2023-04-11T07:37:45.577Z,10.42
2023-04-11T07:40:14.351Z,10.33
2023-04-11T07:42:41.576Z,10.47
2023-04-11T07:45:08.776Z,10.49
2023-04-11T07:47:35.666Z,10.55
2023-04-11T07:50:03.302Z,10.61
2023-04-11T07:52:30.033Z,10.70
2023-04-11T07:54:56.627Z,10.67
2023-04-11T07:57:23.205Z,10.70
2023-04-11T07:59:49.802Z,10.64
2023-04-11T08:02:16.396Z,10.62
2023-04-11T08:04:43.023Z,10.71
2023-04-11T08:07:09.613Z,10.76
2023-04-11T08:09:36.154Z,10.78
2023-04-11T08:12:03.460Z,10.89
2023-04-11T08:14:29.992Z,10.90
2023-04-11T08:16:56.574Z,11.07
2023-04-11T08:19:23.076Z,11.16
2023-04-11T08:21:49.818Z,11.16
2023-04-11T08:24:16.347Z,11.10
2023-04-11T08:26:42.910Z,11.04
2023-04-11T08:29:11.435Z,11.03
2023-04-11T08:31:44.949Z,11.04
2023-04-11T08:34:12.721Z,11.04
2023-04-11T08:36:39.336Z,10.97
2023-04-11T08:39:05.818Z,11.02
2023-04-11T08:41:33.602Z,11.06
2023-04-11T08:44:00.702Z,11.14
2023-04-11T08:46:27.412Z,11.25
2023-04-11T08:48:55.053Z,11.25
2023-04-11T08:51:26.938Z,11.28
2023-04-11T08:53:57.805Z,11.38
2023-04-11T08:56:24.617Z,11.45
2023-04-11T08:58:51.262Z,11.49
2023-04-11T09:01:35.171Z,11.64
2023-04-11T09:04:05.450Z,11.84
2023-04-11T09:06:33.738Z,12.03
2023-04-11T09:09:01.949Z,12.05
2023-04-11T09:11:28.526Z,12.26
2023-04-11T09:14:11.260Z,12.45
2023-04-11T09:16:53.351Z,12.68
2023-04-11T09:19:27.256Z,13.05
2023-04-11T09:21:55.225Z,13.04
2023-04-11T09:24:22.743Z,13.12
2023-04-11T09:26:49.242Z,13.02
2023-04-11T09:29:38.255Z,12.64
2023-04-11T09:32:05.600Z,12.45
2023-04-11T09:34:33.938Z,12.64
2023-04-11T09:37:01.344Z,12.74
2023-04-11T09:39:29.512Z,12.96
2023-04-11T09:41:57.038Z,13.22
2023-04-11T09:44:41.874Z,13.00
2023-04-11T09:47:09.512Z,12.89
2023-04-11T09:49:36.911Z,13.15
2023-04-11T09:52:03.939Z,13.31
2023-04-11T09:54:32.010Z,13.27
2023-04-11T09:56:59.083Z,13.42
2023-04-11T09:59:26.495Z,13.26
2023-04-11T10:01:53.488Z,13.29
2023-04-11T10:04:20.498Z,13.16
2023-04-11T10:07:14.234Z,13.21
2023-04-11T10:09:43.435Z,13.17
2023-04-11T10:12:09.964Z,13.02
2023-04-11T10:14:39.307Z,12.90
2023-04-11T10:17:19.818Z,13.10
2023-04-11T10:19:50.835Z,13.33
2023-04-11T10:22:43.074Z,13.18
2023-04-11T10:25:20.017Z,13.21
2023-04-11T10:27:53.511Z,13.13
2023-04-11T10:30:45.229Z,13.16
2023-04-11T10:33:12.497Z,13.07
2023-04-11T10:35:58.347Z,12.99
2023-04-11T10:38:37.164Z,13.18
2023-04-11T10:41:34.241Z,13.11
2023-04-11T10:44:24.921Z,13.63
2023-04-11T10:46:54.268Z,13.91
2023-04-11T10:49:38.309Z,13.88
2023-04-11T10:52:23.556Z,13.88
2023-04-11T10:54:52.215Z,13.68
2023-04-11T10:57:19.333Z,13.68
2023-04-11T10:59:51.835Z,13.74
2023-04-11T11:02:22.001Z,13.77
2023-04-11T11:04:49.365Z,13.72
2023-04-11T11:07:17.076Z,13.73
2023-04-11T11:09:49.340Z,13.70
2023-04-11T11:12:17.074Z,13.73
2023-04-11T11:14:46.230Z,13.63
2023-04-11T11:17:14.417Z,13.49
2023-04-11T11:19:45.220Z,13.39
2023-04-11T11:22:29.882Z,13.39
2023-04-11T11:25:07.585Z,13.23
2023-04-11T11:27:34.570Z,13.12
2023-04-11T11:30:11.314Z,13.18
2023-04-11T11:32:37.815Z,13.36
2023-04-11T11:35:14.757Z,13.33
2023-04-11T11:37:41.927Z,13.29
2023-04-11T11:40:13.099Z,13.43
2023-04-11T11:42:40.678Z,13.52
2023-04-11T11:45:20.983Z,13.73
2023-04-11T11:47:49.587Z,14.24
2023-04-11T11:50:25.991Z,14.63
2023-04-11T11:52:52.765Z,14.99
2023-04-11T11:55:19.267Z,15.04
2023-04-11T11:57:47.306Z,15.25
2023-04-11T12:00:14.915Z,15.46
2023-04-11T12:02:45.111Z,15.51
2023-04-11T12:05:12.263Z,15.33
2023-04-11T12:07:39.056Z,15.23
2023-04-11T12:10:11.861Z,15.33
2023-04-11T12:12:41.058Z,15.05
2023-04-11T12:15:16.690Z,14.95
2023-04-11T12:17:43.810Z,14.79
2023-04-11T12:20:11.261Z,14.90
2023-04-11T12:22:38.213Z,15.06
2023-04-11T12:25:06.125Z,15.01
2023-04-11T12:27:36.616Z,14.88
2023-04-11T12:30:04.328Z,14.89
2023-04-11T12:32:33.831Z,14.73
2023-04-11T12:35:01.232Z,14.67
2023-04-11T12:37:27.666Z,14.75
2023-04-11T12:39:54.358Z,14.56
2023-04-11T12:42:23.800Z,14.60
2023-04-11T12:44:53.313Z,14.96
2023-04-11T12:47:19.790Z,15.18
2023-04-11T12:49:46.257Z,15.38
2023-04-11T12:52:12.781Z,15.47
2023-04-11T12:54:39.258Z,15.61
2023-04-11T12:57:05.864Z,15.47
2023-04-11T12:59:32.596Z,15.41
2023-04-11T13:01:59.381Z,15.56
2023-04-11T13:04:26.154Z,15.48
2023-04-11T13:06:52.755Z,15.51
2023-04-11T13:09:19.220Z,15.50
2023-04-11T13:11:45.816Z,15.50
2023-04-11T13:14:12.303Z,15.48
2023-04-11T13:16:38.857Z,15.73
2023-04-11T13:19:05.474Z,16.02
2023-04-11T13:21:32.626Z,16.00
2023-04-11T13:23:59.161Z,16.13
2023-04-11T13:26:25.631Z,16.32
2023-04-11T13:28:52.059Z,16.68
2023-04-11T13:31:19.388Z,16.70
2023-04-11T13:33:47.923Z,16.29
2023-04-11T13:36:14.453Z,16.69
2023-04-11T13:38:41.204Z,16.86
2023-04-11T13:41:07.741Z,17.02
2023-04-11T13:43:34.203Z,16.94
2023-04-11T13:46:00.804Z,16.91
2023-04-11T13:48:27.332Z,17.02
2023-04-11T13:50:57.426Z,16.95
2023-04-11T13:53:24.406Z,16.89
2023-04-11T13:55:51.370Z,17.00
2023-04-11T13:58:18.427Z,17.26
2023-04-11T14:00:45.088Z,17.30
2023-04-11T14:03:12.033Z,17.31
2023-04-11T14:05:38.994Z,17.43
2023-04-11T14:08:06.473Z,17.24
2023-04-11T14:10:33.603Z,17.23
2023-04-11T14:13:01.156Z,17.30
2023-04-11T14:15:27.794Z,17.11
2023-04-11T14:17:54.559Z,16.93
2023-04-11T14:20:21.245Z,16.51
2023-04-11T14:22:47.788Z,16.11
2023-04-11T14:25:15.624Z,16.23
2023-04-11T14:27:42.212Z,16.30
2023-04-11T14:30:09.957Z,16.41
2023-04-11T14:32:36.783Z,16.43
2023-04-11T14:35:04.790Z,16.37
2023-04-11T14:37:34.640Z,16.39
2023-04-11T14:40:01.883Z,16.54
2023-04-11T14:42:28.414Z,16.65
2023-04-11T14:44:54.963Z,16.71
2023-04-11T14:47:21.450Z,16.73
2023-04-11T14:49:47.946Z,16.58
2023-04-11T14:52:14.492Z,16.37
2023-04-11T14:54:41.096Z,16.13
2023-04-11T14:57:07.544Z,16.08
2023-04-11T14:59:34.128Z,16.08
2023-04-11T15:02:01.996Z,16.07
2023-04-11T15:04:28.664Z,16.16
2023-04-11T15:06:55.118Z,16.26
2023-04-11T15:09:22.041Z,16.12
2023-04-11T15:11:48.862Z,16.04
2023-04-11T15:14:15.305Z,16.07
2023-04-11T15:16:41.859Z,15.98
2023-04-11T15:19:09.580Z,15.93
2023-04-11T15:21:36.416Z,16.00
2023-04-11T15:24:07.225Z,16.13
2023-04-11T15:26:34.367Z,16.20
2023-04-11T15:29:00.926Z,16.12
2023-04-11T15:31:27.621Z,16.11
2023-04-11T15:33:57.291Z,16.07
2023-04-11T15:36:24.138Z,16.08
2023-04-11T15:38:50.659Z,15.94
2023-04-11T15:41:17.302Z,15.89
2023-04-11T15:43:43.960Z,15.92
2023-04-11T15:46:10.441Z,15.85
2023-04-11T15:48:37.110Z,15.94
2023-04-11T15:51:10.877Z,15.81
2023-04-11T15:53:37.489Z,15.90
2023-04-11T15:56:06.151Z,15.91
2023-04-11T15:58:33.875Z,15.90
2023-04-11T16:01:01.737Z,15.91
2023-04-11T16:03:31.767Z,15.85
2023-04-11T16:05:59.169Z,15.75
2023-04-11T16:08:28.774Z,15.76
2023-04-11T16:10:55.742Z,15.67
2023-04-11T16:13:22.252Z,15.65
2023-04-11T16:15:48.928Z,15.56
2023-04-11T16:18:15.920Z,15.58
2023-04-11T16:20:42.433Z,15.68
2023-04-11T16:23:09.056Z,15.68
2023-04-11T16:25:35.784Z,15.48
2023-04-11T16:28:02.343Z,15.44
2023-04-11T16:30:28.851Z,15.48
2023-04-11T16:32:55.323Z,15.47
2023-04-11T16:35:21.849Z,15.25
2023-04-11T16:37:48.845Z,15.09
2023-04-11T16:40:15.758Z,15.14
2023-04-11T16:42:42.318Z,15.05
2023-04-11T16:45:12.647Z,15.00
2023-04-11T16:47:39.215Z,14.93
2023-04-11T16:50:06.362Z,14.91
2023-04-11T16:52:33.004Z,14.85
2023-04-11T16:54:59.499Z,14.86
2023-04-11T16:57:27.470Z,14.78
2023-04-11T16:59:54.111Z,14.68
2023-04-11T17:02:20.808Z,14.67
2023-04-11T17:04:47.343Z,14.69
2023-04-11T17:07:13.857Z,14.58
2023-04-11T17:09:41.482Z,14.49
2023-04-11T17:12:07.989Z,14.45
2023-04-11T17:14:36.438Z,14.42
2023-04-11T17:17:03.082Z,14.37
2023-04-11T17:19:29.738Z,14.35
2023-04-11T17:21:57.497Z,14.39
2023-04-11T17:24:24.037Z,14.38
2023-04-11T17:26:50.545Z,14.32
2023-04-11T17:29:17.044Z,14.26
2023-04-11T17:31:46.308Z,14.23
2023-04-11T17:34:12.782Z,14.15
2023-04-11T17:36:42.841Z,14.15
2023-04-11T17:39:16.971Z,14.19
2023-04-11T17:41:46.506Z,14.10
2023-04-11T17:44:13.510Z,14.09
2023-04-11T17:46:40.049Z,13.97
2023-04-11T17:49:06.553Z,13.91
2023-04-11T17:51:32.992Z,13.86
2023-04-11T17:53:59.658Z,13.87
2023-04-11T17:56:27.072Z,13.77
2023-04-11T17:58:53.604Z,13.72
2023-04-11T18:01:20.737Z,13.62
2023-04-11T18:03:47.490Z,13.67
2023-04-11T18:06:14.094Z,13.80
2023-04-11T18:08:49.672Z,13.82
2023-04-11T18:11:17.465Z,13.89
2023-04-11T18:13:44.095Z,13.97
2023-04-11T18:16:11.452Z,13.87
2023-04-11T18:18:38.136Z,13.84
2023-04-11T18:21:07.754Z,13.78
2023-04-11T18:23:35.034Z,13.73
2023-04-11T18:26:01.484Z,13.74
2023-04-11T18:28:28.025Z,13.59
2023-04-11T18:30:54.561Z,13.53
2023-04-11T18:33:21.236Z,13.55
2023-04-11T18:35:47.880Z,13.44
2023-04-11T18:38:14.590Z,13.27
2023-04-11T18:40:41.192Z,13.39
2023-04-11T18:43:08.264Z,13.40
2023-04-11T18:45:35.338Z,13.40
2023-04-11T18:48:02.267Z,13.48
2023-04-11T18:50:30.708Z,13.37
2023-04-11T18:53:00.310Z,13.43
2023-04-11T18:55:28.336Z,13.34
2023-04-11T18:57:58.832Z,13.33
2023-04-11T19:00:27.561Z,13.46
2023-04-11T19:02:54.278Z,13.33
2023-04-11T19:05:21.111Z,13.32
2023-04-11T19:07:47.815Z,13.52
2023-04-11T19:10:14.328Z,13.49
2023-04-11T19:12:41.104Z,13.30
2023-04-11T19:15:09.147Z,13.23
2023-04-11T19:17:36.650Z,13.09
2023-04-11T19:20:06.883Z,13.12
2023-04-11T19:22:34.550Z,13.10
2023-04-11T19:25:01.066Z,13.02
2023-04-11T19:27:27.632Z,12.93
2023-04-11T19:29:54.431Z,12.79
2023-04-11T19:32:20.991Z,12.88
2023-04-11T19:34:49.536Z,12.93
2023-04-11T19:37:16.606Z,12.91
2023-04-11T19:39:43.888Z,12.74
2023-04-11T19:42:11.893Z,12.67
2023-04-11T19:44:38.388Z,12.71
2023-04-11T19:47:04.938Z,12.82
2023-04-11T19:49:31.539Z,12.72
2023-04-11T19:51:58.061Z,12.87
2023-04-11T19:54:24.557Z,12.78
2023-04-11T19:56:54.112Z,12.61
2023-04-11T19:59:20.674Z,12.65
2023-04-11T20:01:47.433Z,12.75
2023-04-11T20:04:15.853Z,12.65
2023-04-11T20:06:44.286Z,12.70
2023-04-11T20:09:11.760Z,12.55
2023-04-11T20:11:39.457Z,12.48
2023-04-11T20:14:07.022Z,12.43
2023-04-11T20:16:33.746Z,12.35
2023-04-11T20:19:01.721Z,12.30
2023-04-11T20:21:28.477Z,12.31
2023-04-11T20:23:55.145Z,12.15
2023-04-11T20:26:22.603Z,12.13
2023-04-11T20:28:50.361Z,12.17
2023-04-11T20:31:16.960Z,12.16
2023-04-11T20:33:44.256Z,12.07
2023-04-11T20:36:11.357Z,12.12
2023-04-11T20:38:38.021Z,12.14
2023-04-11T20:41:05.787Z,12.10
2023-04-11T20:43:32.347Z,11.96
2023-04-11T20:45:59.076Z,11.96
2023-04-11T20:48:25.927Z,11.92
2023-04-11T20:50:55.820Z,11.94
2023-04-11T20:53:22.450Z,11.85
2023-04-11T20:55:48.991Z,11.90
2023-04-11T20:58:18.549Z,11.96
2023-04-11T21:00:45.154Z,11.87
2023-04-11T21:03:11.856Z,11.92
2023-04-11T21:05:39.662Z,11.71
2023-04-11T21:08:06.656Z,11.80
2023-04-11T21:10:33.194Z,11.84
2023-04-11T21:12:59.650Z,11.82
2023-04-11T21:15:26.192Z,11.84
2023-04-11T21:17:52.854Z,11.77
2023-04-11T21:20:20.135Z,11.84
2023-04-11T21:22:47.897Z,11.63
2023-04-11T21:25:15.778Z,11.74
2023-04-11T21:27:42.993Z,11.80
2023-04-11T21:30:10.450Z,11.76
2023-04-11T21:32:37.363Z,11.74
2023-04-11T21:35:09.483Z,11.68
2023-04-11T21:37:36.057Z,11.70
2023-04-11T21:40:03.241Z,11.71
2023-04-11T21:42:29.686Z,11.63
2023-04-11T21:44:56.195Z,11.59
2023-04-11T21:47:22.796Z,11.57
2023-04-11T21:49:49.306Z,11.49
2023-04-11T21:52:15.856Z,11.50
2023-04-11T21:54:43.738Z,11.50
2023-04-11T21:57:10.918Z,11.56
2023-04-11T21:59:38.648Z,11.54
2023-04-11T22:02:05.603Z,11.55
2023-04-11T22:04:39.209Z,11.49
2023-04-11T22:07:15.618Z,11.55
2023-04-11T22:09:46.611Z,11.59
2023-04-11T22:12:17.504Z,11.66
2023-04-11T22:14:44.213Z,11.61
2023-04-11T22:17:10.922Z,11.62
2023-04-11T22:19:37.412Z,11.49
2023-04-11T22:22:08.270Z,11.62
2023-04-11T22:24:34.927Z,11.58
2023-04-11T22:27:04.262Z,11.48
2023-04-11T22:29:31.383Z,11.51
2023-04-11T22:31:59.474Z,11.63
2023-04-11T22:34:26.962Z,11.66
2023-04-11T22:36:53.445Z,11.57
2023-04-11T22:39:20.670Z,11.42
2023-04-11T22:41:50.527Z,11.20
2023-04-11T22:44:18.185Z,11.18
2023-04-11T22:47:06.274Z,11.10
2023-04-11T22:49:40.480Z,11.06
2023-04-11T22:52:14.761Z,11.08
2023-04-11T22:54:42.017Z,10.97
2023-04-11T22:57:08.609Z,10.88
2023-04-11T22:59:35.103Z,10.73
2023-04-11T23:02:01.734Z,10.58
2023-04-11T23:04:28.422Z,10.67
2023-04-11T23:06:54.969Z,10.55
2023-04-11T23:09:21.870Z,10.48
2023-04-11T23:11:49.855Z,10.41
2023-04-11T23:14:18.285Z,10.41
2023-04-11T23:16:45.152Z,10.39
2023-04-11T23:19:12.007Z,10.34
2023-04-11T23:21:38.629Z,10.48
2023-04-11T23:24:06.876Z,10.41
2023-04-11T23:26:33.529Z,10.30
2023-04-11T23:29:02.400Z,10.37
2023-04-11T23:31:29.800Z,10.32
2023-04-11T23:33:56.900Z,10.32
2023-04-11T23:36:23.654Z,10.32
2023-04-11T23:38:50.094Z,10.23
2023-04-11T23:41:16.586Z,10.20
2023-04-11T23:43:43.079Z,10.16
2023-04-11T23:46:09.760Z,10.17
2023-04-11T23:48:37.039Z,10.11
2023-04-11T23:51:03.734Z,10.05
2023-04-11T23:53:31.615Z,9.81
2023-04-11T23:55:58.201Z,9.87
2023-04-11T23:58:24.747Z,9.61
